sensor_id;sensor_type;location;lat;lon;timestamp;temperature;humidity
2749;DHT22;1382;52.142;11.618;2023-01-28T00:02:11;5.90;55.60
2749;DHT22;1382;52.142;11.618;2023-01-28T00:04:38;5.90;55.60
2749;DHT22;1382;52.142;11.618;2023-01-28T00:07:06;5.90;55.60
2749;DHT22;1382;52.142;11.618;2023-01-28T00:09:33;5.80;55.50
2749;DHT22;1382;52.142;11.618;2023-01-28T00:11:59;5.80;55.40
2749;DHT22;1382;52.142;11.618;2023-01-28T00:14:26;5.80;55.20
2749;DHT22;1382;52.142;11.618;2023-01-28T00:16:53;5.80;55.50
2749;DHT22;1382;52.142;11.618;2023-01-28T00:19:19;5.80;55.70
2749;DHT22;1382;52.142;11.618;2023-01-28T00:21:46;5.80;55.90
2749;DHT22;1382;52.142;11.618;2023-01-28T00:24:14;5.70;56.00
2749;DHT22;1382;52.142;11.618;2023-01-28T00:26:41;5.70;56.10
2749;DHT22;1382;52.142;11.618;2023-01-28T00:29:07;5.80;56.10
2749;DHT22;1382;52.142;11.618;2023-01-28T00:31:34;5.70;56.00
2749;DHT22;1382;52.142;11.618;2023-01-28T00:34:01;5.80;56.20
2749;DHT22;1382;52.142;11.618;2023-01-28T00:36:27;5.70;56.10
2749;DHT22;1382;52.142;11.618;2023-01-28T00:38:56;5.70;56.00
2749;DHT22;1382;52.142;11.618;2023-01-28T00:41:26;5.70;56.00
2749;DHT22;1382;52.142;11.618;2023-01-28T00:43:53;5.70;56.10
2749;DHT22;1382;52.142;11.618;2023-01-28T00:46:21;5.70;55.90
2749;DHT22;1382;52.142;11.618;2023-01-28T00:48:48;5.70;55.50
2749;DHT22;1382;52.142;11.618;2023-01-28T00:51:16;5.60;55.70
2749;DHT22;1382;52.142;11.618;2023-01-28T00:53:43;5.60;55.90
2749;DHT22;1382;52.142;11.618;2023-01-28T00:56:12;5.60;55.90
2749;DHT22;1382;52.142;11.618;2023-01-28T00:58:40;5.60;56.00
2749;DHT22;1382;52.142;11.618;2023-01-28T01:01:08;5.60;56.00
2749;DHT22;1382;52.142;11.618;2023-01-28T01:03:35;5.60;55.80
2749;DHT22;1382;52.142;11.618;2023-01-28T01:06:02;5.60;55.70
2749;DHT22;1382;52.142;11.618;2023-01-28T01:08:29;5.50;55.70
2749;DHT22;1382;52.142;11.618;2023-01-28T01:10:57;5.50;55.70
2749;DHT22;1382;52.142;11.618;2023-01-28T01:13:24;5.50;55.80
2749;DHT22;1382;52.142;11.618;2023-01-28T01:16:00;5.50;55.80
2749;DHT22;1382;52.142;11.618;2023-01-28T01:18:27;5.50;55.80
2749;DHT22;1382;52.142;11.618;2023-01-28T01:20:53;5.50;55.90
2749;DHT22;1382;52.142;11.618;2023-01-28T01:23:20;5.50;55.90
2749;DHT22;1382;52.142;11.618;2023-01-28T01:25:47;5.50;55.80
2749;DHT22;1382;52.142;11.618;2023-01-28T01:28:14;5.50;55.70
2749;DHT22;1382;52.142;11.618;2023-01-28T01:30:41;5.50;55.70
2749;DHT22;1382;52.142;11.618;2023-01-28T01:33:09;5.40;55.70
2749;DHT22;1382;52.142;11.618;2023-01-28T01:35:35;5.40;55.70
2749;DHT22;1382;52.142;11.618;2023-01-28T01:38:02;5.40;55.70
2749;DHT22;1382;52.142;11.618;2023-01-28T01:40:29;5.50;55.80
2749;DHT22;1382;52.142;11.618;2023-01-28T01:42:56;5.40;55.80
2749;DHT22;1382;52.142;11.618;2023-01-28T01:45:23;5.40;55.80
2749;DHT22;1382;52.142;11.618;2023-01-28T01:47:55;5.30;55.70
2749;DHT22;1382;52.142;11.618;2023-01-28T01:50:28;5.40;55.70
2749;DHT22;1382;52.142;11.618;2023-01-28T01:53:01;5.30;55.70
2749;DHT22;1382;52.142;11.618;2023-01-28T01:55:30;5.50;55.90
2749;DHT22;1382;52.142;11.618;2023-01-28T01:58:06;5.40;55.60
2749;DHT22;1382;52.142;11.618;2023-01-28T02:00:33;5.50;55.40
2749;DHT22;1382;52.142;11.618;2023-01-28T02:03:01;5.40;55.30
2749;DHT22;1382;52.142;11.618;2023-01-28T02:05:31;5.40;55.20
2749;DHT22;1382;52.142;11.618;2023-01-28T02:07:59;5.40;55.10
2749;DHT22;1382;52.142;11.618;2023-01-28T02:10:26;5.40;55.00
2749;DHT22;1382;52.142;11.618;2023-01-28T02:12:56;5.50;55.20
2749;DHT22;1382;52.142;11.618;2023-01-28T02:15:25;5.50;55.10
2749;DHT22;1382;52.142;11.618;2023-01-28T02:17:53;5.40;55.00
2749;DHT22;1382;52.142;11.618;2023-01-28T02:20:22;5.30;55.00
2749;DHT22;1382;52.142;11.618;2023-01-28T02:23:13;5.30;54.90
2749;DHT22;1382;52.142;11.618;2023-01-28T02:28:54;5.20;54.90
2749;DHT22;1382;52.142;11.618;2023-01-28T02:31:30;5.30;55.00
2749;DHT22;1382;52.142;11.618;2023-01-28T02:34:07;5.30;55.10
2749;DHT22;1382;52.142;11.618;2023-01-28T02:36:40;5.30;55.20
2749;DHT22;1382;52.142;11.618;2023-01-28T02:39:13;5.30;55.00
2749;DHT22;1382;52.142;11.618;2023-01-28T02:41:46;5.30;55.00
2749;DHT22;1382;52.142;11.618;2023-01-28T02:44:16;5.30;55.10
2749;DHT22;1382;52.142;11.618;2023-01-28T02:46:43;5.20;55.10
2749;DHT22;1382;52.142;11.618;2023-01-28T02:49:13;5.10;54.90
2749;DHT22;1382;52.142;11.618;2023-01-28T02:51:53;5.40;55.10
2749;DHT22;1382;52.142;11.618;2023-01-28T02:54:31;5.20;54.90
2749;DHT22;1382;52.142;11.618;2023-01-28T02:57:10;5.20;54.90
2749;DHT22;1382;52.142;11.618;2023-01-28T02:59:49;5.20;55.10
2749;DHT22;1382;52.142;11.618;2023-01-28T03:02:21;5.20;55.30
2749;DHT22;1382;52.142;11.618;2023-01-28T03:04:56;5.20;55.40
2749;DHT22;1382;52.142;11.618;2023-01-28T03:07:26;5.20;55.40
2749;DHT22;1382;52.142;11.618;2023-01-28T03:10:13;5.00;55.30
2749;DHT22;1382;52.142;11.618;2023-01-28T03:12:43;5.20;55.50
2749;DHT22;1382;52.142;11.618;2023-01-28T03:15:17;5.10;55.50
2749;DHT22;1382;52.142;11.618;2023-01-28T03:17:47;5.00;55.40
2749;DHT22;1382;52.142;11.618;2023-01-28T03:20:15;5.30;55.60
2749;DHT22;1382;52.142;11.618;2023-01-28T03:22:45;5.00;55.40
2749;DHT22;1382;52.142;11.618;2023-01-28T03:25:15;5.30;55.60
2749;DHT22;1382;52.142;11.618;2023-01-28T03:27:48;5.10;55.40
2749;DHT22;1382;52.142;11.618;2023-01-28T03:30:21;5.30;55.60
2749;DHT22;1382;52.142;11.618;2023-01-28T03:32:49;5.10;55.40
2749;DHT22;1382;52.142;11.618;2023-01-28T03:35:19;5.10;55.60
2749;DHT22;1382;52.142;11.618;2023-01-28T03:37:48;5.30;55.70
2749;DHT22;1382;52.142;11.618;2023-01-28T03:40:16;5.10;55.60
2749;DHT22;1382;52.142;11.618;2023-01-28T03:42:43;5.00;55.50
2749;DHT22;1382;52.142;11.618;2023-01-28T03:45:11;5.10;55.60
2749;DHT22;1382;52.142;11.618;2023-01-28T03:47:41;5.10;55.50
2749;DHT22;1382;52.142;11.618;2023-01-28T03:50:09;5.30;55.60
2749;DHT22;1382;52.142;11.618;2023-01-28T03:52:36;5.10;55.50
2749;DHT22;1382;52.142;11.618;2023-01-28T03:55:04;5.10;55.50
2749;DHT22;1382;52.142;11.618;2023-01-28T03:57:31;5.00;55.40
2749;DHT22;1382;52.142;11.618;2023-01-28T03:59:58;5.10;55.50
2749;DHT22;1382;52.142;11.618;2023-01-28T04:02:26;5.20;55.50
2749;DHT22;1382;52.142;11.618;2023-01-28T04:04:54;5.10;55.40
2749;DHT22;1382;52.142;11.618;2023-01-28T04:07:22;5.10;55.40
2749;DHT22;1382;52.142;11.618;2023-01-28T04:09:49;5.10;55.40
2749;DHT22;1382;52.142;11.618;2023-01-28T04:12:16;5.10;55.40
2749;DHT22;1382;52.142;11.618;2023-01-28T04:14:44;5.20;55.50
2749;DHT22;1382;52.142;11.618;2023-01-28T04:17:11;5.10;55.50
2749;DHT22;1382;52.142;11.618;2023-01-28T04:19:38;5.20;55.60
2749;DHT22;1382;52.142;11.618;2023-01-28T04:22:09;5.00;55.50
2749;DHT22;1382;52.142;11.618;2023-01-28T04:24:37;5.20;55.60
2749;DHT22;1382;52.142;11.618;2023-01-28T04:27:04;5.00;55.50
2749;DHT22;1382;52.142;11.618;2023-01-28T04:29:31;5.10;55.50
2749;DHT22;1382;52.142;11.618;2023-01-28T04:31:58;5.00;55.40
2749;DHT22;1382;52.142;11.618;2023-01-28T04:34:26;5.00;55.40
2749;DHT22;1382;52.142;11.618;2023-01-28T04:36:52;5.00;56.00
2749;DHT22;1382;52.142;11.618;2023-01-28T04:39:21;5.00;55.30
2749;DHT22;1382;52.142;11.618;2023-01-28T04:41:48;5.10;55.20
2749;DHT22;1382;52.142;11.618;2023-01-28T04:44:16;5.00;55.10
2749;DHT22;1382;52.142;11.618;2023-01-28T04:46:43;5.00;55.20
2749;DHT22;1382;52.142;11.618;2023-01-28T04:49:10;5.10;55.30
2749;DHT22;1382;52.142;11.618;2023-01-28T04:51:51;5.00;55.30
2749;DHT22;1382;52.142;11.618;2023-01-28T04:54:18;5.10;55.40
2749;DHT22;1382;52.142;11.618;2023-01-28T04:56:47;5.10;55.40
2749;DHT22;1382;52.142;11.618;2023-01-28T04:59:14;5.10;55.40
2749;DHT22;1382;52.142;11.618;2023-01-28T05:01:41;5.00;55.10
2749;DHT22;1382;52.142;11.618;2023-01-28T05:04:08;5.20;55.20
2749;DHT22;1382;52.142;11.618;2023-01-28T05:06:35;5.00;55.10
2749;DHT22;1382;52.142;11.618;2023-01-28T05:09:03;5.00;55.20
2749;DHT22;1382;52.142;11.618;2023-01-28T05:11:30;5.20;55.40
2749;DHT22;1382;52.142;11.618;2023-01-28T05:13:58;5.20;55.40
2749;DHT22;1382;52.142;11.618;2023-01-28T05:16:25;5.00;55.20
2749;DHT22;1382;52.142;11.618;2023-01-28T05:18:52;5.00;55.20
2749;DHT22;1382;52.142;11.618;2023-01-28T05:21:19;5.00;55.20
2749;DHT22;1382;52.142;11.618;2023-01-28T05:23:46;5.00;54.40
2749;DHT22;1382;52.142;11.618;2023-01-28T05:26:13;5.00;54.70
2749;DHT22;1382;52.142;11.618;2023-01-28T05:28:40;5.10;55.10
2749;DHT22;1382;52.142;11.618;2023-01-28T05:31:09;5.00;55.30
2749;DHT22;1382;52.142;11.618;2023-01-28T05:33:37;4.90;55.10
2749;DHT22;1382;52.142;11.618;2023-01-28T05:36:09;5.00;55.80
2749;DHT22;1382;52.142;11.618;2023-01-28T05:38:36;5.00;55.10
2749;DHT22;1382;52.142;11.618;2023-01-28T05:41:03;5.00;54.80
2749;DHT22;1382;52.142;11.618;2023-01-28T05:43:30;5.00;54.60
2749;DHT22;1382;52.142;11.618;2023-01-28T05:45:57;5.10;54.80
2749;DHT22;1382;52.142;11.618;2023-01-28T05:48:26;4.90;54.00
2749;DHT22;1382;52.142;11.618;2023-01-28T05:50:53;5.00;54.00
2749;DHT22;1382;52.142;11.618;2023-01-28T05:53:20;5.00;54.10
2749;DHT22;1382;52.142;11.618;2023-01-28T05:55:48;5.00;54.30
2749;DHT22;1382;52.142;11.618;2023-01-28T05:58:15;5.00;54.40
2749;DHT22;1382;52.142;11.618;2023-01-28T06:00:42;5.00;54.50
2749;DHT22;1382;52.142;11.618;2023-01-28T06:03:09;5.00;54.40
2749;DHT22;1382;52.142;11.618;2023-01-28T06:05:38;5.00;54.80
2749;DHT22;1382;52.142;11.618;2023-01-28T06:08:05;5.00;54.10
2749;DHT22;1382;52.142;11.618;2023-01-28T06:10:32;5.00;54.20
2749;DHT22;1382;52.142;11.618;2023-01-28T06:12:59;5.00;54.20
2749;DHT22;1382;52.142;11.618;2023-01-28T06:15:26;5.10;54.10
2749;DHT22;1382;52.142;11.618;2023-01-28T06:17:54;5.20;54.30
2749;DHT22;1382;52.142;11.618;2023-01-28T06:20:21;5.10;54.20
2749;DHT22;1382;52.142;11.618;2023-01-28T06:22:50;5.00;54.00
2749;DHT22;1382;52.142;11.618;2023-01-28T06:25:18;5.00;54.10
2749;DHT22;1382;52.142;11.618;2023-01-28T06:27:45;4.90;54.10
2749;DHT22;1382;52.142;11.618;2023-01-28T06:30:12;5.00;54.10
2749;DHT22;1382;52.142;11.618;2023-01-28T06:32:40;5.00;54.10
2749;DHT22;1382;52.142;11.618;2023-01-28T06:35:07;5.20;54.30
2749;DHT22;1382;52.142;11.618;2023-01-28T06:37:35;5.10;54.30
2749;DHT22;1382;52.142;11.618;2023-01-28T06:40:04;5.20;54.40
2749;DHT22;1382;52.142;11.618;2023-01-28T06:42:31;5.00;54.20
2749;DHT22;1382;52.142;11.618;2023-01-28T06:44:58;5.00;54.50
2749;DHT22;1382;52.142;11.618;2023-01-28T06:47:27;5.00;54.50
2749;DHT22;1382;52.142;11.618;2023-01-28T06:49:55;5.00;54.50
2749;DHT22;1382;52.142;11.618;2023-01-28T06:52:22;5.20;54.30
2749;DHT22;1382;52.142;11.618;2023-01-28T06:54:49;5.20;53.30
2749;DHT22;1382;52.142;11.618;2023-01-28T06:57:18;5.00;53.40
2749;DHT22;1382;52.142;11.618;2023-01-28T06:59:45;5.00;53.70
2749;DHT22;1382;52.142;11.618;2023-01-28T07:02:13;5.00;54.00
2749;DHT22;1382;52.142;11.618;2023-01-28T07:04:40;5.00;54.10
2749;DHT22;1382;52.142;11.618;2023-01-28T07:07:11;5.00;54.20
2749;DHT22;1382;52.142;11.618;2023-01-28T07:09:38;5.00;54.20
2749;DHT22;1382;52.142;11.618;2023-01-28T07:12:08;5.00;54.40
2749;DHT22;1382;52.142;11.618;2023-01-28T07:14:36;5.00;54.50
2749;DHT22;1382;52.142;11.618;2023-01-28T07:17:03;5.00;54.30
2749;DHT22;1382;52.142;11.618;2023-01-28T07:19:30;5.00;54.10
2749;DHT22;1382;52.142;11.618;2023-01-28T07:21:56;5.00;54.10
2749;DHT22;1382;52.142;11.618;2023-01-28T07:24:23;5.00;54.00
2749;DHT22;1382;52.142;11.618;2023-01-28T07:26:50;5.00;54.10
2749;DHT22;1382;52.142;11.618;2023-01-28T07:29:17;5.00;54.20
2749;DHT22;1382;52.142;11.618;2023-01-28T07:31:45;5.00;54.30
2749;DHT22;1382;52.142;11.618;2023-01-28T07:34:13;5.00;54.40
2749;DHT22;1382;52.142;11.618;2023-01-28T07:36:39;5.00;54.30
2749;DHT22;1382;52.142;11.618;2023-01-28T07:39:06;5.00;54.30
2749;DHT22;1382;52.142;11.618;2023-01-28T07:41:33;5.00;54.50
2749;DHT22;1382;52.142;11.618;2023-01-28T07:44:00;5.00;54.60
2749;DHT22;1382;52.142;11.618;2023-01-28T07:46:27;5.00;54.60
2749;DHT22;1382;52.142;11.618;2023-01-28T07:48:55;5.00;54.60
2749;DHT22;1382;52.142;11.618;2023-01-28T07:51:22;5.00;54.50
2749;DHT22;1382;52.142;11.618;2023-01-28T07:53:49;5.00;55.00
2749;DHT22;1382;52.142;11.618;2023-01-28T07:56:15;5.00;53.60
2749;DHT22;1382;52.142;11.618;2023-01-28T07:58:42;5.00;53.00
2749;DHT22;1382;52.142;11.618;2023-01-28T08:01:09;5.00;53.30
2749;DHT22;1382;52.142;11.618;2023-01-28T08:03:36;5.00;53.00
2749;DHT22;1382;52.142;11.618;2023-01-28T08:06:04;5.00;53.00
2749;DHT22;1382;52.142;11.618;2023-01-28T08:08:31;5.00;53.10
2749;DHT22;1382;52.142;11.618;2023-01-28T08:10:58;5.20;53.30
2749;DHT22;1382;52.142;11.618;2023-01-28T08:13:24;5.00;53.20
2749;DHT22;1382;52.142;11.618;2023-01-28T08:15:54;5.00;53.30
2749;DHT22;1382;52.142;11.618;2023-01-28T08:18:21;5.10;53.50
2749;DHT22;1382;52.142;11.618;2023-01-28T08:20:48;5.10;53.50
2749;DHT22;1382;52.142;11.618;2023-01-28T08:23:17;5.20;53.10
2749;DHT22;1382;52.142;11.618;2023-01-28T08:25:45;5.10;52.70
2749;DHT22;1382;52.142;11.618;2023-01-28T08:28:13;5.10;53.00
2749;DHT22;1382;52.142;11.618;2023-01-28T08:30:40;5.30;53.20
2749;DHT22;1382;52.142;11.618;2023-01-28T08:33:10;5.10;53.00
2749;DHT22;1382;52.142;11.618;2023-01-28T08:35:37;5.10;53.10
2749;DHT22;1382;52.142;11.618;2023-01-28T08:38:04;5.10;53.30
2749;DHT22;1382;52.142;11.618;2023-01-28T08:40:33;5.10;53.30
2749;DHT22;1382;52.142;11.618;2023-01-28T08:43:00;5.10;53.40
2749;DHT22;1382;52.142;11.618;2023-01-28T08:45:27;5.10;53.30
2749;DHT22;1382;52.142;11.618;2023-01-28T08:47:56;5.20;53.40
2749;DHT22;1382;52.142;11.618;2023-01-28T08:50:24;5.20;53.40
2749;DHT22;1382;52.142;11.618;2023-01-28T08:52:54;5.30;53.70
2749;DHT22;1382;52.142;11.618;2023-01-28T08:55:21;5.20;53.50
2749;DHT22;1382;52.142;11.618;2023-01-28T08:57:49;5.20;53.40
2749;DHT22;1382;52.142;11.618;2023-01-28T09:00:16;5.20;53.20
2749;DHT22;1382;52.142;11.618;2023-01-28T09:02:43;5.20;53.20
2749;DHT22;1382;52.142;11.618;2023-01-28T09:05:10;5.20;53.10
2749;DHT22;1382;52.142;11.618;2023-01-28T09:07:38;5.20;53.00
2749;DHT22;1382;52.142;11.618;2023-01-28T09:10:06;5.20;53.00
2749;DHT22;1382;52.142;11.618;2023-01-28T09:12:33;5.20;53.10
2749;DHT22;1382;52.142;11.618;2023-01-28T09:15:01;5.30;53.20
2749;DHT22;1382;52.142;11.618;2023-01-28T09:17:27;5.40;52.90
2749;DHT22;1382;52.142;11.618;2023-01-28T09:19:54;5.30;53.10
2749;DHT22;1382;52.142;11.618;2023-01-28T09:22:21;5.30;53.10
2749;DHT22;1382;52.142;11.618;2023-01-28T09:24:48;5.30;53.10
2749;DHT22;1382;52.142;11.618;2023-01-28T09:27:15;5.40;53.10
2749;DHT22;1382;52.142;11.618;2023-01-28T09:29:42;5.40;52.90
2749;DHT22;1382;52.142;11.618;2023-01-28T09:32:10;5.40;52.90
2749;DHT22;1382;52.142;11.618;2023-01-28T09:34:36;5.40;52.90
2749;DHT22;1382;52.142;11.618;2023-01-28T09:37:03;5.40;52.90
2749;DHT22;1382;52.142;11.618;2023-01-28T09:39:30;5.40;52.80
2749;DHT22;1382;52.142;11.618;2023-01-28T09:44:57;5.50;51.90
2749;DHT22;1382;52.142;11.618;2023-01-28T09:47:31;5.50;52.10
2749;DHT22;1382;52.142;11.618;2023-01-28T09:50:00;5.50;51.80
2749;DHT22;1382;52.142;11.618;2023-01-28T09:52:30;5.50;51.60
2749;DHT22;1382;52.142;11.618;2023-01-28T09:55:04;5.50;51.40
2749;DHT22;1382;52.142;11.618;2023-01-28T09:57:37;5.50;51.20
2749;DHT22;1382;52.142;11.618;2023-01-28T10:00:11;5.50;50.60
2749;DHT22;1382;52.142;11.618;2023-01-28T10:03:00;5.50;50.60
2749;DHT22;1382;52.142;11.618;2023-01-28T10:05:37;5.60;50.80
2749;DHT22;1382;52.142;11.618;2023-01-28T10:08:17;5.50;51.00
2749;DHT22;1382;52.142;11.618;2023-01-28T10:10:49;5.60;50.80
2749;DHT22;1382;52.142;11.618;2023-01-28T10:13:23;5.60;51.20
2749;DHT22;1382;52.142;11.618;2023-01-28T10:16:02;5.80;51.30
2749;DHT22;1382;52.142;11.618;2023-01-28T10:18:38;5.70;51.90
2749;DHT22;1382;52.142;11.618;2023-01-28T10:21:14;5.70;51.40
2749;DHT22;1382;52.142;11.618;2023-01-28T10:23:48;5.70;50.70
2749;DHT22;1382;52.142;11.618;2023-01-28T10:26:22;5.70;50.80
2749;DHT22;1382;52.142;11.618;2023-01-28T10:28:53;5.70;49.50
2749;DHT22;1382;52.142;11.618;2023-01-28T10:31:22;5.70;50.70
2749;DHT22;1382;52.142;11.618;2023-01-28T10:33:51;5.70;51.40
2749;DHT22;1382;52.142;11.618;2023-01-28T10:36:18;5.70;51.70
2749;DHT22;1382;52.142;11.618;2023-01-28T10:38:45;5.80;51.60
2749;DHT22;1382;52.142;11.618;2023-01-28T10:41:17;5.80;51.00
2749;DHT22;1382;52.142;11.618;2023-01-28T10:43:46;5.90;50.90
2749;DHT22;1382;52.142;11.618;2023-01-28T10:46:17;5.90;51.20
2749;DHT22;1382;52.142;11.618;2023-01-28T10:48:47;5.80;49.00
2749;DHT22;1382;52.142;11.618;2023-01-28T10:51:29;5.80;49.80
2749;DHT22;1382;52.142;11.618;2023-01-28T10:53:56;5.80;50.40
2749;DHT22;1382;52.142;11.618;2023-01-28T10:56:25;5.80;50.50
2749;DHT22;1382;52.142;11.618;2023-01-28T10:58:57;5.90;50.10
2749;DHT22;1382;52.142;11.618;2023-01-28T11:01:24;5.90;49.70
2749;DHT22;1382;52.142;11.618;2023-01-28T11:03:53;5.90;49.90
2749;DHT22;1382;52.142;11.618;2023-01-28T11:06:27;5.90;49.70
2749;DHT22;1382;52.142;11.618;2023-01-28T11:08:54;5.90;50.40
2749;DHT22;1382;52.142;11.618;2023-01-28T11:11:23;5.90;50.90
2749;DHT22;1382;52.142;11.618;2023-01-28T11:13:51;6.00;51.00
2749;DHT22;1382;52.142;11.618;2023-01-28T11:16:19;6.00;49.90
2749;DHT22;1382;52.142;11.618;2023-01-28T11:18:49;6.00;50.50
2749;DHT22;1382;52.142;11.618;2023-01-28T11:21:19;6.00;49.30
2749;DHT22;1382;52.142;11.618;2023-01-28T11:23:52;6.00;48.70
2749;DHT22;1382;52.142;11.618;2023-01-28T11:26:23;6.00;48.40
2749;DHT22;1382;52.142;11.618;2023-01-28T11:28:51;6.00;49.80
2749;DHT22;1382;52.142;11.618;2023-01-28T11:31:20;6.00;49.80
2749;DHT22;1382;52.142;11.618;2023-01-28T11:33:49;6.20;49.40
2749;DHT22;1382;52.142;11.618;2023-01-28T11:36:19;6.00;49.50
2749;DHT22;1382;52.142;11.618;2023-01-28T11:38:50;6.20;50.40
2749;DHT22;1382;52.142;11.618;2023-01-28T11:41:18;6.10;50.80
2749;DHT22;1382;52.142;11.618;2023-01-28T11:43:48;6.10;50.00
2749;DHT22;1382;52.142;11.618;2023-01-28T11:46:33;6.10;50.10
2749;DHT22;1382;52.142;11.618;2023-01-28T11:49:10;6.20;50.20
2749;DHT22;1382;52.142;11.618;2023-01-28T11:51:46;6.20;50.40
2749;DHT22;1382;52.142;11.618;2023-01-28T11:54:26;6.20;49.70
2749;DHT22;1382;52.142;11.618;2023-01-28T11:57:06;6.20;49.60
2749;DHT22;1382;52.142;11.618;2023-01-28T11:59:55;6.20;49.10
2749;DHT22;1382;52.142;11.618;2023-01-28T12:02:45;6.20;49.10
2749;DHT22;1382;52.142;11.618;2023-01-28T12:05:29;6.20;49.80
2749;DHT22;1382;52.142;11.618;2023-01-28T12:08:05;6.20;49.70
2749;DHT22;1382;52.142;11.618;2023-01-28T12:10:42;6.20;49.70
2749;DHT22;1382;52.142;11.618;2023-01-28T12:13:24;6.20;49.60
2749;DHT22;1382;52.142;11.618;2023-01-28T12:16:22;6.20;50.10
2749;DHT22;1382;52.142;11.618;2023-01-28T12:19:07;6.20;49.20
2749;DHT22;1382;52.142;11.618;2023-01-28T12:21:47;6.20;50.00
2749;DHT22;1382;52.142;11.618;2023-01-28T12:24:26;6.20;50.80
2749;DHT22;1382;52.142;11.618;2023-01-28T12:27:03;6.20;50.50
2749;DHT22;1382;52.142;11.618;2023-01-28T12:29:37;6.30;50.50
2749;DHT22;1382;52.142;11.618;2023-01-28T12:32:15;6.30;50.80
2749;DHT22;1382;52.142;11.618;2023-01-28T12:37:57;6.30;50.30
2749;DHT22;1382;52.142;11.618;2023-01-28T12:40:49;6.30;50.10
2749;DHT22;1382;52.142;11.618;2023-01-28T12:43:23;6.30;50.20
2749;DHT22;1382;52.142;11.618;2023-01-28T12:45:54;6.30;50.40
2749;DHT22;1382;52.142;11.618;2023-01-28T12:48:25;6.30;50.20
2749;DHT22;1382;52.142;11.618;2023-01-28T12:50:57;6.30;50.10
2749;DHT22;1382;52.142;11.618;2023-01-28T12:53:30;6.40;50.20
2749;DHT22;1382;52.142;11.618;2023-01-28T12:56:03;6.40;50.30
2749;DHT22;1382;52.142;11.618;2023-01-28T12:58:38;6.40;51.00
2749;DHT22;1382;52.142;11.618;2023-01-28T13:01:08;6.40;50.40
2749;DHT22;1382;52.142;11.618;2023-01-28T13:03:40;6.40;50.60
2749;DHT22;1382;52.142;11.618;2023-01-28T13:06:13;6.40;50.80
2749;DHT22;1382;52.142;11.618;2023-01-28T13:08:41;6.40;51.50
2749;DHT22;1382;52.142;11.618;2023-01-28T13:11:12;6.50;52.00
2749;DHT22;1382;52.142;11.618;2023-01-28T13:13:41;6.50;51.10
2749;DHT22;1382;52.142;11.618;2023-01-28T13:16:11;6.40;51.40
2749;DHT22;1382;52.142;11.618;2023-01-28T13:18:45;6.50;52.20
2749;DHT22;1382;52.142;11.618;2023-01-28T13:21:15;6.50;52.00
2749;DHT22;1382;52.142;11.618;2023-01-28T13:23:43;6.50;51.80
2749;DHT22;1382;52.142;11.618;2023-01-28T13:26:27;6.50;51.80
2749;DHT22;1382;52.142;11.618;2023-01-28T13:29:08;6.60;51.80
2749;DHT22;1382;52.142;11.618;2023-01-28T13:31:37;6.60;51.20
2749;DHT22;1382;52.142;11.618;2023-01-28T13:34:06;6.50;51.50
2749;DHT22;1382;52.142;11.618;2023-01-28T13:36:41;6.60;51.20
2749;DHT22;1382;52.142;11.618;2023-01-28T13:39:20;6.60;51.40
2749;DHT22;1382;52.142;11.618;2023-01-28T13:41:49;6.60;51.90
2749;DHT22;1382;52.142;11.618;2023-01-28T13:44:20;6.60;52.20
2749;DHT22;1382;52.142;11.618;2023-01-28T13:46:52;6.80;52.60
2749;DHT22;1382;52.142;11.618;2023-01-28T13:49:23;6.70;52.90
2749;DHT22;1382;52.142;11.618;2023-01-28T13:51:58;6.70;52.70
2749;DHT22;1382;52.142;11.618;2023-01-28T13:54:28;6.70;52.70
2749;DHT22;1382;52.142;11.618;2023-01-28T13:57:13;6.90;52.90
2749;DHT22;1382;52.142;11.618;2023-01-28T13:59:53;6.80;52.40
2749;DHT22;1382;52.142;11.618;2023-01-28T14:02:41;6.80;52.10
2749;DHT22;1382;52.142;11.618;2023-01-28T14:05:53;6.80;51.70
2749;DHT22;1382;52.142;11.618;2023-01-28T14:11:52;6.80;50.90
2749;DHT22;1382;52.142;11.618;2023-01-28T14:14:33;6.80;51.20
2749;DHT22;1382;52.142;11.618;2023-01-28T14:17:13;6.80;50.30
2749;DHT22;1382;52.142;11.618;2023-01-28T14:19:44;6.80;49.80
2749;DHT22;1382;52.142;11.618;2023-01-28T14:22:16;6.80;50.60
2749;DHT22;1382;52.142;11.618;2023-01-28T14:24:44;6.80;50.00
2749;DHT22;1382;52.142;11.618;2023-01-28T14:27:14;6.80;50.90
2749;DHT22;1382;52.142;11.618;2023-01-28T14:29:50;6.80;50.20
2749;DHT22;1382;52.142;11.618;2023-01-28T14:32:27;6.80;50.50
2749;DHT22;1382;52.142;11.618;2023-01-28T14:34:55;6.80;51.50
2749;DHT22;1382;52.142;11.618;2023-01-28T14:37:28;6.80;51.00
2749;DHT22;1382;52.142;11.618;2023-01-28T14:39:58;6.80;51.10
2749;DHT22;1382;52.142;11.618;2023-01-28T14:42:29;6.70;50.20
2749;DHT22;1382;52.142;11.618;2023-01-28T14:45:06;6.70;50.10
2749;DHT22;1382;52.142;11.618;2023-01-28T14:47:52;6.70;50.50
2749;DHT22;1382;52.142;11.618;2023-01-28T14:50:29;6.70;50.90
2749;DHT22;1382;52.142;11.618;2023-01-28T14:53:36;6.70;50.10
2749;DHT22;1382;52.142;11.618;2023-01-28T14:56:13;6.70;50.10
2749;DHT22;1382;52.142;11.618;2023-01-28T14:58:45;6.70;50.40
2749;DHT22;1382;52.142;11.618;2023-01-28T15:01:20;6.60;47.90
2749;DHT22;1382;52.142;11.618;2023-01-28T15:03:48;6.50;47.70
2749;DHT22;1382;52.142;11.618;2023-01-28T15:06:17;6.50;49.20
2749;DHT22;1382;52.142;11.618;2023-01-28T15:08:43;6.50;49.60
2749;DHT22;1382;52.142;11.618;2023-01-28T15:11:13;6.50;50.10
2749;DHT22;1382;52.142;11.618;2023-01-28T15:13:44;6.50;50.40
2749;DHT22;1382;52.142;11.618;2023-01-28T15:16:16;6.50;50.20
2749;DHT22;1382;52.142;11.618;2023-01-28T15:18:44;6.50;49.60
2749;DHT22;1382;52.142;11.618;2023-01-28T15:21:13;6.50;49.10
2749;DHT22;1382;52.142;11.618;2023-01-28T15:23:43;6.40;49.80
2749;DHT22;1382;52.142;11.618;2023-01-28T15:26:13;6.60;49.60
2749;DHT22;1382;52.142;11.618;2023-01-28T15:28:42;6.50;49.60
2749;DHT22;1382;52.142;11.618;2023-01-28T15:31:19;6.40;49.30
2749;DHT22;1382;52.142;11.618;2023-01-28T15:33:55;6.40;49.50
2749;DHT22;1382;52.142;11.618;2023-01-28T15:36:23;6.40;49.10
2749;DHT22;1382;52.142;11.618;2023-01-28T15:38:50;6.50;49.10
2749;DHT22;1382;52.142;11.618;2023-01-28T15:41:19;6.50;50.40
2749;DHT22;1382;52.142;11.618;2023-01-28T15:43:48;6.30;49.90
2749;DHT22;1382;52.142;11.618;2023-01-28T15:46:16;6.30;49.70
2749;DHT22;1382;52.142;11.618;2023-01-28T15:48:47;6.30;49.90
2749;DHT22;1382;52.142;11.618;2023-01-28T15:51:19;6.30;49.90
2749;DHT22;1382;52.142;11.618;2023-01-28T15:53:52;6.30;50.60
2749;DHT22;1382;52.142;11.618;2023-01-28T15:56:25;6.20;50.00
2749;DHT22;1382;52.142;11.618;2023-01-28T15:58:52;6.20;50.30
2749;DHT22;1382;52.142;11.618;2023-01-28T16:01:19;6.20;50.10
2749;DHT22;1382;52.142;11.618;2023-01-28T16:03:59;6.20;49.50
2749;DHT22;1382;52.142;11.618;2023-01-28T16:06:31;6.20;50.10
2749;DHT22;1382;52.142;11.618;2023-01-28T16:09:04;6.10;50.40
2749;DHT22;1382;52.142;11.618;2023-01-28T16:11:33;6.10;51.00
2749;DHT22;1382;52.142;11.618;2023-01-28T16:14:00;6.30;51.50
2749;DHT22;1382;52.142;11.618;2023-01-28T16:16:30;6.10;51.40
2749;DHT22;1382;52.142;11.618;2023-01-28T16:18:57;6.10;51.40
2749;DHT22;1382;52.142;11.618;2023-01-28T16:21:26;6.00;51.30
2749;DHT22;1382;52.142;11.618;2023-01-28T16:24:01;6.00;51.60
2749;DHT22;1382;52.142;11.618;2023-01-28T16:26:30;6.10;51.40
2749;DHT22;1382;52.142;11.618;2023-01-28T16:28:59;6.10;51.40
2749;DHT22;1382;52.142;11.618;2023-01-28T16:31:31;6.00;51.20
2749;DHT22;1382;52.142;11.618;2023-01-28T16:33:58;5.90;51.00
2749;DHT22;1382;52.142;11.618;2023-01-28T16:36:25;5.90;51.80